logo
Rechercher aéroport 
image banner adimage banner adimage banner ad
image banner ad

EGWA05 - Kemeys Commander

Situé à , United Kingdom

ICAO - , IATA -

Données fournies par Airmate  

Information générale

Coordonnées: N51°44'10" W2°56'14"
Élévation : 130 feet MSL.
 
Voir autres Aéroports à England

Données opérationnelles

Special qualification required
Heure actuelle UTC:
Heure actuelle locale:
Météo à : EGGD - Bristol ( 42 km )
METAR: EGGD 062120Z AUTO 25003KT 9999 NCD 03/01 Q1038
TAF: TAF EGGD 062256Z 0700/0724 16004KT CAVOK TEMPO 0700/0705 7000 PROB30 0702/0705 2000 BR MIFG BECMG 0705/0708 7000 PROB30 0705/0710 0300 FZFG BKN000 BECMG 0710/0713 CAVOK TEMPO 0718/0724 6000 PROB40 0721/0724 2000 BR MIFG
Voir NOTAMs / SUP AIP / TFR affectant cet aéroport [VIEW]
Fréquences de communication: [VIEW]

Pistes:

Coordonnées de l'aéroport

Adresse: United Kingdom

Vue satellite de EGWA05